Landen, Belgium
Current Conditions -  °F | °C
As of 3:25 PM on Friday 19 Dec 2014 (Local Time) from EBBE Reporting Station
Broken Clouds Broken Clouds  
Wind Chill: 44°   Ceiling: 1400
Heat Index: 46°   Visibility: 6mi
Dew Point: 46°   Wind: 6mph
Humidity: 100%   Direction: 310°NW
Pressure: 29.97"   Gusts: NA
Location:  50.75°N, 5.08°E
Report Text: EBBE 191425Z 31005KT 9999 FEW006 SCT009 BKN014 08/08 Q1015 GRN GRN BECMG WHT
Loading
Personal Weather Stations






























Interactive Weather Map New forecast layout! Learn more

10-Day Weather Forecast

Advertisements
Track Severe Weather on mobile